Forest Hills, New York
Current Conditions -  °F | °C
As of 12:51 PM on Sunday 25 Jan 2015 (Local Time) from KLGA Reporting Station
Scattered Clouds Scattered Clouds  
Wind Chill: 32°   Ceiling: Unl
Heat Index: 41°   Visibility: 10mi
Dew Point: 13°   Wind: 18mph
Humidity: 32%   Direction: 300°WNW
Pressure: 29.78"   Gusts: 31mph
Location:  40.72°N, 73.85°W
Report Text: KLGA 251751Z 30016G27KT 10SM FEW030 SCT150 SCT250 05/M11 A2978 RMK AO2 PK WND 29027/1742 SLP082 4/001 T00501106 10056 20022 53013 $
Loading
Personal Weather Stations






























Interactive Weather Map New forecast layout! Learn more

10-Day Weather Forecast

Advertisements
Track Severe Weather on mobile